Time;durP1;ratioP1;P1;durP2;ratioP2;P2;SDS_P1;SDS_P2;PMS_P1;PMS_P2;Temp;Humidity;BMP_temperature;BMP_pressure;BME280_temperature;BME280_humidity;BME280_pressure;Samples;Min_cycle;Max_cycle;Signal;HPM_P1;HPM_P2
2024/01/16 00:00:12;;;;;;;15.80;8.15;;;0.70;99.90;;;;;;4942485;28;20039;-82
2024/01/16 00:02:37;;;;;;;7.05;3.50;;;0.70;99.90;;;;;;4958267;28;20027;-81
2024/01/16 00:05:03;;;;;;;13.63;5.72;;;0.80;99.90;;;;;;4942602;28;20035;-82
2024/01/16 00:07:29;;;;;;;8.90;3.92;;;0.70;99.90;;;;;;4959354;28;20038;-81
2024/01/16 00:09:54;;;;;;;12.00;5.07;;;0.70;99.90;;;;;;4929681;28;20035;-82
2024/01/16 00:12:20;;;;;;;11.85;6.07;;;0.80;99.90;;;;;;4946206;28;20100;-82
2024/01/16 00:14:46;;;;;;;11.60;6.28;;;0.80;99.90;;;;;;4957924;28;20046;-82
2024/01/16 00:17:11;;;;;;;9.77;3.50;;;0.70;99.90;;;;;;4945425;28;20070;-81
2024/01/16 00:19:37;;;;;;;7.00;3.75;;;0.80;99.90;;;;;;4945360;28;21219;-81
2024/01/16 00:22:04;;;;;;;5.03;3.83;;;0.70;99.90;;;;;;4940847;28;20050;-81
2024/01/16 00:24:30;;;;;;;13.93;8.13;;;0.80;99.90;;;;;;4941872;28;20561;-81
2024/01/16 00:26:55;;;;;;;16.33;5.50;;;0.70;99.90;;;;;;4936596;28;20118;-82
2024/01/16 00:29:21;;;;;;;11.20;7.10;;;0.80;99.90;;;;;;4944696;28;20090;-82
2024/01/16 00:31:47;;;;;;;7.03;3.30;;;0.70;99.90;;;;;;4941929;28;20499;-82
2024/01/16 00:34:12;;;;;;;9.13;4.07;;;0.80;99.90;;;;;;4943258;28;20126;-83
2024/01/16 00:36:39;;;;;;;10.65;5.07;;;0.80;99.90;;;;;;4961577;28;20113;-82
2024/01/16 00:39:05;;;;;;;11.75;4.22;;;0.80;99.90;;;;;;4943694;28;20749;-82
2024/01/16 00:41:30;;;;;;;11.20;4.70;;;0.80;99.90;;;;;;4927019;28;20066;-83
2024/01/16 00:43:56;;;;;;;5.57;3.22;;;0.80;99.90;;;;;;4942659;28;20061;-82
2024/01/16 00:46:21;;;;;;;6.72;3.00;;;0.80;99.90;;;;;;4945491;28;20056;-80
2024/01/16 00:48:47;;;;;;;12.52;5.45;;;0.80;99.90;;;;;;4944022;28;20521;-80
2024/01/16 00:51:13;;;;;;;7.10;4.57;;;0.80;99.90;;;;;;4941845;28;20118;-80
2024/01/16 00:53:42;;;;;;;13.55;5.88;;;0.70;99.90;;;;;;4939724;28;20410;-80
2024/01/16 00:56:07;;;;;;;10.30;5.32;;;0.70;99.90;;;;;;4955031;28;20666;-80
2024/01/16 00:58:33;;;;;;;12.30;5.57;;;0.80;99.90;;;;;;4946540;28;20061;-81
2024/01/16 01:00:58;;;;;;;10.00;4.13;;;0.70;99.90;;;;;;4948667;28;20055;-80
2024/01/16 01:03:24;;;;;;;5.78;2.95;;;0.70;99.90;;;;;;4959820;28;20038;-80
2024/01/16 01:05:49;;;;;;;9.82;3.15;;;0.70;99.90;;;;;;4948216;28;20126;-78
2024/01/16 01:08:16;;;;;;;10.40;5.07;;;0.70;99.90;;;;;;4964773;28;20035;-79
2024/01/16 01:10:41;;;;;;;6.53;3.58;;;0.70;99.90;;;;;;4945610;28;20475;-78
2024/01/16 01:13:07;;;;;;;11.68;4.07;;;0.70;99.90;;;;;;4961255;28;20031;-79
2024/01/16 01:15:32;;;;;;;10.70;4.60;;;0.70;99.90;;;;;;4945191;28;20035;-80
2024/01/16 01:17:58;;;;;;;9.82;4.38;;;0.70;99.90;;;;;;4944836;28;20054;-81
2024/01/16 01:20:23;;;;;;;12.45;4.95;;;0.70;99.90;;;;;;4948359;28;20034;-79
2024/01/16 01:22:49;;;;;;;7.00;3.10;;;0.80;99.90;;;;;;4949315;28;20046;-79
2024/01/16 01:25:14;;;;;;;11.23;4.15;;;0.70;99.90;;;;;;4960955;28;20789;-79
2024/01/16 01:27:40;;;;;;;11.23;5.28;;;0.70;99.90;;;;;;4945276;28;20378;-79
2024/01/16 01:30:08;;;;;;;4.47;3.45;;;0.70;99.90;;;;;;4944587;28;20027;-78
2024/01/16 01:32:33;;;;;;;6.88;3.53;;;0.70;99.90;;;;;;4945721;28;20024;-79
2024/01/16 01:34:59;;;;;;;8.20;3.45;;;0.70;99.90;;;;;;4945072;28;20046;-79
2024/01/16 01:37:25;;;;;;;7.95;4.38;;;0.70;99.90;;;;;;4946399;28;20049;-79
2024/01/16 01:39:51;;;;;;;6.57;2.95;;;0.70;99.90;;;;;;4946061;28;20026;-78
2024/01/16 01:42:17;;;;;;;11.98;4.20;;;0.70;99.90;;;;;;4945063;28;20031;-79
2024/01/16 01:44:42;;;;;;;10.73;5.53;;;0.70;99.90;;;;;;4942994;28;20035;-79
2024/01/16 01:47:08;;;;;;;9.35;4.18;;;0.70;99.90;;;;;;4941780;28;20035;-79
2024/01/16 01:49:33;;;;;;;9.95;5.15;;;0.70;99.90;;;;;;4945737;28;20102;-79
2024/01/16 01:51:59;;;;;;;9.50;3.63;;;0.60;99.90;;;;;;4946849;28;20158;-80
2024/01/16 01:54:24;;;;;;;9.02;4.90;;;0.70;99.90;;;;;;4940806;28;20016;-78
2024/01/16 01:56:50;;;;;;;9.38;5.03;;;0.70;99.90;;;;;;4943966;28;20039;-79
2024/01/16 01:59:18;;;;;;;8.80;4.25;;;0.70;99.90;;;;;;4942642;28;20556;-80
2024/01/16 02:01:44;;;;;;;13.48;6.05;;;0.70;99.90;;;;;;4943584;28;20042;-80
2024/01/16 02:04:10;;;;;;;6.88;3.58;;;0.60;99.90;;;;;;4945851;28;20031;-79
2024/01/16 02:06:35;;;;;;;13.98;6.10;;;0.70;99.90;;;;;;4946638;28;20035;-80
2024/01/16 02:09:01;;;;;;;13.43;4.55;;;0.60;99.90;;;;;;4943603;28;20093;-78
2024/01/16 02:11:27;;;;;;;6.20;3.58;;;0.70;99.90;;;;;;4955466;28;20118;-79
2024/01/16 02:13:52;;;;;;;14.70;6.13;;;0.70;99.90;;;;;;4946817;28;20035;-80
2024/01/16 02:16:19;;;;;;;14.23;5.57;;;0.70;99.90;;;;;;4959928;28;20469;-79
2024/01/16 02:18:47;;;;;;;11.25;6.43;;;0.70;99.90;;;;;;4957488;28;20027;-81
2024/01/16 02:21:24;;;;;;;7.03;4.32;;;0.70;99.90;;;;;;4929220;28;20043;-81
2024/01/16 02:23:50;;;;;;;11.48;5.72;;;0.70;99.90;;;;;;4943672;28;20039;-81
2024/01/16 02:26:16;;;;;;;16.40;7.13;;;0.70;99.90;;;;;;4963090;28;20035;-81
2024/01/16 02:28:42;;;;;;;16.30;6.82;;;0.70;99.90;;;;;;4960176;28;20039;-81
2024/01/16 02:31:08;;;;;;;7.78;4.35;;;0.60;99.90;;;;;;4942537;28;20603;-82
2024/01/16 02:33:33;;;;;;;17.98;8.38;;;0.70;99.90;;;;;;4947475;28;20194;-82
2024/01/16 02:35:59;;;;;;;11.35;6.18;;;0.60;99.90;;;;;;4946941;28;20043;-81
2024/01/16 02:38:24;;;;;;;10.18;5.07;;;0.70;99.90;;;;;;4946783;28;20043;-81
2024/01/16 02:40:50;;;;;;;14.27;5.95;;;0.70;99.90;;;;;;4946274;28;20031;-81
2024/01/16 02:43:16;;;;;;;9.85;4.15;;;0.70;99.90;;;;;;4944525;28;20032;-82
2024/01/16 02:45:42;;;;;;;10.60;6.07;;;0.70;99.90;;;;;;4962167;28;20150;-81
2024/01/16 02:48:08;;;;;;;5.47;3.50;;;0.70;99.90;;;;;;4932318;28;20552;-81
2024/01/16 02:50:33;;;;;;;18.85;8.10;;;0.70;99.90;;;;;;4959077;28;20122;-81
2024/01/16 02:53:02;;;;;;;17.60;9.13;;;0.70;99.90;;;;;;4958443;28;20066;-82
2024/01/16 02:55:27;;;;;;;15.57;7.90;;;0.70;99.90;;;;;;4948384;28;20031;-82
2024/01/16 02:57:54;;;;;;;13.63;7.72;;;0.80;99.90;;;;;;4944198;28;21457;-82
2024/01/16 03:00:19;;;;;;;7.38;4.60;;;0.80;99.90;;;;;;4935547;28;20046;-82
2024/01/16 03:02:45;;;;;;;16.10;9.88;;;0.80;99.90;;;;;;4941718;28;20039;-83
2024/01/16 03:05:11;;;;;;;18.27;8.80;;;0.80;99.90;;;;;;4957059;28;20035;-82
2024/01/16 03:07:36;;;;;;;11.82;5.47;;;0.80;99.90;;;;;;4948190;28;20036;-81
2024/01/16 03:10:02;;;;;;;26.48;13.15;;;0.80;99.90;;;;;;4933534;28;20121;-81
2024/01/16 03:12:28;;;;;;;25.95;11.32;;;0.80;99.90;;;;;;4946479;28;20046;-81
2024/01/16 03:14:54;;;;;;;16.27;8.27;;;0.80;99.90;;;;;;4944787;28;20054;-81
2024/01/16 03:17:19;;;;;;;15.63;8.32;;;0.80;99.90;;;;;;4943950;28;20042;-81
2024/01/16 03:19:45;;;;;;;11.85;7.05;;;0.80;99.90;;;;;;4945765;28;20082;-81
2024/01/16 03:22:10;;;;;;;13.38;7.60;;;0.80;99.90;;;;;;4941889;28;20035;-81
2024/01/16 03:24:36;;;;;;;26.73;12.65;;;0.80;99.90;;;;;;4943520;28;20046;-81
2024/01/16 03:27:02;;;;;;;20.45;11.30;;;0.70;99.90;;;;;;4939342;28;20047;-82
2024/01/16 03:29:27;;;;;;;11.80;5.47;;;0.80;99.90;;;;;;4939531;28;20460;-79
2024/01/16 03:31:53;;;;;;;21.48;9.75;;;0.80;99.90;;;;;;4956592;28;20032;-79
2024/01/16 03:34:18;;;;;;;22.23;11.75;;;0.90;99.90;;;;;;4955333;28;20046;-80
2024/01/16 03:36:44;;;;;;;18.85;8.45;;;0.80;99.90;;;;;;4941730;28;20067;-80
2024/01/16 03:39:10;;;;;;;35.15;16.77;;;0.80;99.90;;;;;;4944010;28;20105;-79
2024/01/16 03:41:35;;;;;;;32.88;15.82;;;0.80;99.90;;;;;;4944141;28;20035;-80
2024/01/16 03:44:01;;;;;;;25.83;12.10;;;0.80;99.90;;;;;;4942613;28;20047;-79
2024/01/16 03:46:26;;;;;;;18.35;9.40;;;0.80;99.90;;;;;;4939713;28;20114;-80
2024/01/16 03:48:52;;;;;;;17.88;9.32;;;0.80;99.90;;;;;;4943127;28;20069;-79
2024/01/16 03:51:19;;;;;;;15.93;7.13;;;0.90;99.90;;;;;;4944920;28;20034;-79
2024/01/16 03:53:45;;;;;;;33.60;17.48;;;0.80;99.90;;;;;;4942432;28;20031;-79
2024/01/16 03:56:10;;;;;;;13.45;8.07;;;0.80;99.90;;;;;;4940433;28;20031;-78
2024/01/16 03:58:36;;;;;;;37.05;19.27;;;0.80;99.90;;;;;;4959025;28;20129;-79
2024/01/16 04:01:02;;;;;;;21.42;11.02;;;0.80;99.90;;;;;;4939831;28;20496;-79
2024/01/16 04:03:27;;;;;;;37.90;19.77;;;0.80;99.90;;;;;;4942872;28;20366;-79
2024/01/16 04:05:53;;;;;;;28.88;15.50;;;0.80;99.90;;;;;;4941566;28;20069;-79
2024/01/16 04:08:18;;;;;;;14.38;7.90;;;0.80;99.90;;;;;;4954205;28;20035;-80
2024/01/16 04:10:44;;;;;;;25.02;11.73;;;0.80;99.90;;;;;;4947453;28;20027;-80
2024/01/16 04:13:09;;;;;;;24.40;11.55;;;0.80;99.90;;;;;;4945965;28;20043;-80
2024/01/16 04:15:38;;;;;;;22.50;12.10;;;0.80;99.90;;;;;;4956529;28;20066;-81
2024/01/16 04:18:04;;;;;;;30.95;17.60;;;0.80;99.90;;;;;;4945774;28;20034;-82
2024/01/16 04:20:29;;;;;;;25.50;14.30;;;0.80;99.90;;;;;;4941074;28;20041;-80
2024/01/16 04:22:56;;;;;;;36.88;18.17;;;0.80;99.90;;;;;;4946694;28;20501;-81
2024/01/16 04:25:21;;;;;;;22.45;11.02;;;0.90;99.90;;;;;;4941851;28;20129;-81
2024/01/16 04:27:47;;;;;;;34.00;16.77;;;0.90;99.90;;;;;;4959400;28;20392;-81
2024/01/16 04:30:13;;;;;;;35.30;16.00;;;0.80;99.90;;;;;;4946492;28;20493;-81
2024/01/16 04:32:38;;;;;;;25.02;11.52;;;0.80;99.90;;;;;;4946231;28;20019;-81
2024/01/16 04:35:04;;;;;;;12.35;8.68;;;0.90;99.90;;;;;;4939501;28;20073;-81
2024/01/16 04:37:30;;;;;;;28.00;15.55;;;0.80;99.90;;;;;;4937278;28;20113;-81
2024/01/16 04:39:55;;;;;;;24.23;9.95;;;0.80;99.90;;;;;;4945529;28;20063;-82
2024/01/16 04:42:21;;;;;;;22.80;10.50;;;0.80;99.90;;;;;;4937713;28;20042;-82
2024/01/16 04:44:46;;;;;;;24.85;13.90;;;0.80;99.90;;;;;;4938793;28;20109;-81
2024/01/16 04:47:12;;;;;;;16.27;8.75;;;0.80;99.90;;;;;;4927894;28;20030;-81
2024/01/16 04:49:37;;;;;;;14.93;8.68;;;0.80;99.90;;;;;;4942733;28;20027;-81
2024/01/16 04:52:03;;;;;;;22.02;10.63;;;0.80;99.90;;;;;;4941604;28;20035;-81
2024/01/16 04:54:29;;;;;;;26.52;13.55;;;0.80;99.90;;;;;;4944041;28;20023;-81
2024/01/16 04:56:54;;;;;;;17.08;9.07;;;0.80;99.90;;;;;;4955988;28;20042;-81
2024/01/16 04:59:20;;;;;;;21.25;10.98;;;0.80;99.90;;;;;;4942909;28;20027;-82
2024/01/16 05:01:45;;;;;;;21.45;12.10;;;0.80;99.90;;;;;;4926645;28;20036;-81
2024/01/16 05:04:11;;;;;;;14.80;6.18;;;0.80;99.90;;;;;;4944587;28;20042;-81
2024/01/16 05:06:37;;;;;;;19.60;9.70;;;0.80;99.90;;;;;;4942988;28;20047;-82
2024/01/16 05:09:03;;;;;;;15.27;8.93;;;0.90;99.90;;;;;;4929296;28;20408;-82
2024/01/16 05:11:28;;;;;;;14.02;8.40;;;0.90;99.90;;;;;;4928637;28;20039;-82
2024/01/16 05:13:57;;;;;;;17.33;10.07;;;0.80;99.90;;;;;;4929593;28;20027;-82
2024/01/16 05:16:26;;;;;;;5.95;4.10;;;0.90;99.90;;;;;;4944611;28;20034;-81
2024/01/16 05:18:53;;;;;;;10.80;7.30;;;0.80;99.90;;;;;;4941795;28;20035;-81
2024/01/16 05:21:21;;;;;;;8.50;4.63;;;0.80;99.90;;;;;;4928933;28;20173;-81
2024/01/16 05:23:49;;;;;;;17.02;7.35;;;0.90;99.90;;;;;;4921950;28;20101;-81
2024/01/16 05:26:15;;;;;;;14.60;6.65;;;0.80;99.90;;;;;;4916413;28;20106;-82
2024/01/16 05:28:41;;;;;;;6.72;4.15;;;0.90;99.90;;;;;;4957888;28;20485;-82
2024/01/16 05:31:07;;;;;;;12.18;6.80;;;0.80;99.90;;;;;;4939867;28;20452;-82
2024/01/16 05:33:35;;;;;;;13.07;6.10;;;0.90;99.90;;;;;;4938291;28;20039;-81
2024/01/16 05:36:02;;;;;;;11.63;4.63;;;0.90;99.90;;;;;;4905003;28;20043;-83
2024/01/16 05:38:27;;;;;;;12.82;6.13;;;0.90;99.90;;;;;;4944175;28;20575;-82
2024/01/16 05:40:53;;;;;;;15.40;7.57;;;0.80;99.90;;;;;;4954202;28;20111;-81
2024/01/16 05:43:18;;;;;;;10.73;4.53;;;0.80;99.90;;;;;;4956506;28;20437;-81
2024/01/16 05:45:44;;;;;;;7.63;4.90;;;0.90;99.90;;;;;;4948373;28;20030;-81
2024/01/16 05:48:10;;;;;;;7.18;3.47;;;0.80;99.90;;;;;;4937759;28;20094;-80
2024/01/16 05:50:36;;;;;;;14.98;9.48;;;0.90;99.90;;;;;;4904405;28;20051;-80
2024/01/16 05:53:02;;;;;;;14.50;7.70;;;0.80;99.90;;;;;;4892972;28;20066;-80
2024/01/16 05:55:28;;;;;;;13.70;7.15;;;0.80;99.90;;;;;;4945212;28;20030;-79
2024/01/16 05:57:54;;;;;;;14.85;7.20;;;0.80;99.90;;;;;;4944517;28;20124;-80
2024/01/16 06:00:22;;;;;;;6.30;4.18;;;0.90;99.90;;;;;;4947682;28;20125;-79
2024/01/16 06:02:48;;;;;;;11.70;6.28;;;0.80;99.90;;;;;;4945318;28;20050;-79
2024/01/16 06:05:13;;;;;;;21.08;11.30;;;0.80;99.90;;;;;;4944986;28;20031;-80
2024/01/16 06:07:39;;;;;;;15.18;7.90;;;0.80;99.90;;;;;;4943816;28;20038;-80
2024/01/16 06:10:06;;;;;;;9.60;4.43;;;0.70;99.90;;;;;;4942458;28;20042;-79
2024/01/16 06:12:31;;;;;;;17.02;8.35;;;0.80;99.90;;;;;;4943694;28;20037;-80
2024/01/16 06:14:57;;;;;;;18.67;10.95;;;0.80;99.90;;;;;;4948907;28;20512;-80
2024/01/16 06:17:23;;;;;;;22.83;11.85;;;0.70;99.90;;;;;;4948241;28;20035;-79
2024/01/16 06:19:48;;;;;;;21.08;11.27;;;0.80;99.90;;;;;;4958795;28;20057;-80
2024/01/16 06:22:14;;;;;;;6.88;2.60;;;0.80;99.90;;;;;;4957844;28;20424;-80
2024/01/16 06:24:40;;;;;;;16.45;9.45;;;0.80;99.90;;;;;;4938119;28;20417;-80
2024/01/16 06:27:08;;;;;;;18.05;10.07;;;0.80;99.90;;;;;;4959149;28;20035;-80
2024/01/16 06:29:37;;;;;;;17.35;8.15;;;0.80;99.90;;;;;;4946053;28;20042;-80
2024/01/16 06:32:02;;;;;;;10.50;6.65;;;0.80;99.90;;;;;;4958072;28;20046;-80
2024/01/16 06:34:28;;;;;;;16.45;8.23;;;0.80;99.90;;;;;;4932426;28;20043;-80
2024/01/16 06:36:54;;;;;;;22.67;12.55;;;0.80;99.90;;;;;;4955048;28;20038;-81
2024/01/16 06:39:19;;;;;;;21.15;10.55;;;0.80;99.90;;;;;;4946114;28;20038;-80
2024/01/16 06:41:45;;;;;;;24.23;9.90;;;0.90;99.90;;;;;;4945819;28;20453;-80
2024/01/16 06:44:10;;;;;;;18.52;10.52;;;0.70;99.90;;;;;;4943636;28;20569;-80
2024/01/16 06:46:36;;;;;;;31.75;14.00;;;0.70;99.90;;;;;;4943145;28;20512;-81
2024/01/16 06:49:02;;;;;;;19.58;10.45;;;0.80;99.90;;;;;;4920148;29;20374;-80
2024/01/16 06:51:27;;;;;;;26.92;12.60;;;0.80;99.90;;;;;;4943272;28;20300;-80
2024/01/16 06:53:54;;;;;;;18.02;8.93;;;0.70;99.90;;;;;;4961201;28;20043;-80
2024/01/16 06:56:20;;;;;;;18.25;11.02;;;0.70;99.90;;;;;;4960157;28;20046;-80
2024/01/16 06:58:45;;;;;;;18.73;8.98;;;0.70;99.90;;;;;;4944185;28;20389;-80
2024/01/16 07:01:11;;;;;;;13.10;8.02;;;0.70;99.90;;;;;;4945565;28;20047;-80
2024/01/16 07:03:37;;;;;;;33.35;15.88;;;0.70;99.90;;;;;;4945149;28;20449;-80
2024/01/16 07:06:03;;;;;;;18.80;10.10;;;0.70;99.90;;;;;;4960111;28;20027;-80
2024/01/16 07:08:28;;;;;;;16.73;7.70;;;0.60;99.90;;;;;;4933830;28;20042;-81
2024/01/16 07:10:54;;;;;;;20.83;9.40;;;0.60;99.90;;;;;;4945080;28;20049;-79
2024/01/16 07:13:20;;;;;;;17.17;7.85;;;0.60;99.90;;;;;;4947283;28;20493;-80
2024/01/16 07:15:45;;;;;;;22.10;9.40;;;0.60;99.90;;;;;;4931999;28;20045;-80
2024/01/16 07:18:11;;;;;;;17.63;8.43;;;0.60;99.90;;;;;;4944933;28;20039;-80
2024/01/16 07:20:36;;;;;;;14.60;7.97;;;0.60;99.90;;;;;;4947751;28;20031;-79
2024/01/16 07:23:02;;;;;;;13.20;8.05;;;0.50;99.90;;;;;;4944745;28;20105;-79
2024/01/16 07:25:28;;;;;;;10.57;4.97;;;0.50;99.90;;;;;;4944107;28;20126;-80
2024/01/16 07:27:54;;;;;;;11.55;4.53;;;0.50;99.90;;;;;;4942365;28;20126;-79
2024/01/16 07:30:19;;;;;;;16.90;7.35;;;0.50;99.90;;;;;;4944606;28;20086;-81
2024/01/16 07:32:45;;;;;;;15.43;7.20;;;0.50;99.90;;;;;;4942727;28;20023;-80
2024/01/16 07:35:10;;;;;;;11.18;4.55;;;0.50;99.90;;;;;;4942422;28;20039;-80
2024/01/16 07:37:36;;;;;;;18.38;7.75;;;0.50;99.90;;;;;;4956951;28;20027;-80
2024/01/16 07:40:02;;;;;;;19.10;6.75;;;0.50;99.90;;;;;;4944240;28;20034;-79
2024/01/16 07:42:33;;;;;;;15.43;3.70;;;0.50;99.90;;;;;;4943924;28;20045;-80
2024/01/16 07:45:04;;;;;;;8.98;5.50;;;0.50;99.90;;;;;;4940772;28;20033;-80
2024/01/16 07:47:32;;;;;;;12.55;4.45;;;0.60;99.90;;;;;;4929571;28;20473;-80
2024/01/16 07:49:58;;;;;;;22.17;5.90;;;0.50;99.90;;;;;;4946762;28;20106;-80
2024/01/16 07:52:24;;;;;;;11.23;5.45;;;0.50;99.90;;;;;;4956475;28;20445;-80
2024/01/16 07:54:49;;;;;;;10.27;5.28;;;0.50;99.90;;;;;;4942285;28;20113;-80
2024/01/16 07:57:15;;;;;;;15.63;5.90;;;0.40;99.90;;;;;;4928768;28;20034;-80
2024/01/16 07:59:41;;;;;;;18.92;6.45;;;0.50;99.90;;;;;;4944665;28;20472;-80
2024/01/16 08:02:06;;;;;;;21.77;6.25;;;0.50;99.90;;;;;;4943264;28;20042;-80
2024/01/16 08:04:32;;;;;;;10.35;5.30;;;0.50;99.90;;;;;;4943738;28;20037;-81
2024/01/16 08:06:58;;;;;;;3.35;1.90;;;0.40;99.90;;;;;;4935980;28;20034;-80
2024/01/16 08:09:23;;;;;;;8.65;3.95;;;0.40;99.90;;;;;;4944873;28;22114;-81
2024/01/16 08:11:49;;;;;;;5.75;3.42;;;0.40;99.90;;;;;;4929738;28;20022;-82
2024/01/16 08:14:14;;;;;;;6.88;2.55;;;0.40;99.90;;;;;;4942977;28;20564;-82
2024/01/16 08:16:40;;;;;;;10.05;3.67;;;0.40;99.90;;;;;;4915686;28;20038;-82
2024/01/16 08:19:06;;;;;;;12.60;2.53;;;0.40;99.90;;;;;;4944798;28;20419;-82
2024/01/16 08:21:32;;;;;;;9.77;3.35;;;0.40;99.90;;;;;;4916282;28;20042;-81
2024/01/16 08:23:58;;;;;;;9.40;4.72;;;0.40;99.90;;;;;;4914490;28;20481;-81
2024/01/16 08:26:25;;;;;;;4.60;2.33;;;0.50;99.90;;;;;;4956385;28;20031;-81
2024/01/16 08:28:51;;;;;;;4.00;2.38;;;0.50;99.90;;;;;;4943227;28;20054;-81
2024/01/16 08:31:18;;;;;;;5.13;1.60;;;0.50;99.90;;;;;;4944747;28;20063;-82
2024/01/16 08:33:44;;;;;;;4.18;2.50;;;0.50;99.90;;;;;;4956064;28;20038;-81
2024/01/16 08:36:09;;;;;;;6.63;3.17;;;0.50;99.90;;;;;;4958906;28;20507;-82
2024/01/16 08:38:35;;;;;;;6.20;2.65;;;0.50;99.90;;;;;;4946587;28;20396;-81
2024/01/16 08:41:00;;;;;;;7.65;1.75;;;0.40;99.90;;;;;;4942702;28;20523;-81
2024/01/16 08:43:26;;;;;;;11.23;3.17;;;0.50;99.90;;;;;;4940497;28;20045;-82
2024/01/16 08:45:52;;;;;;;7.22;2.05;;;0.50;99.90;;;;;;4954993;28;20043;-82
2024/01/16 08:48:17;;;;;;;8.40;2.90;;;0.50;99.90;;;;;;4940127;28;20035;-81
2024/01/16 08:50:43;;;;;;;3.85;1.60;;;0.50;99.90;;;;;;4944597;28;20379;-81
2024/01/16 08:53:09;;;;;;;6.03;3.20;;;0.50;99.90;;;;;;4941735;28;20393;-80
2024/01/16 08:55:34;;;;;;;4.45;1.65;;;0.50;99.90;;;;;;4929865;28;20026;-81
2024/01/16 08:58:00;;;;;;;10.50;2.80;;;0.60;99.90;;;;;;4944208;28;20049;-81
2024/01/16 09:00:33;;;;;;;15.65;3.63;;;0.60;99.90;;;;;;4943119;28;20073;-81
2024/01/16 09:02:59;;;;;;;6.72;2.80;;;0.60;99.90;;;;;;4956331;28;20039;-81
2024/01/16 09:05:25;;;;;;;5.30;1.63;;;0.60;99.90;;;;;;4955454;28;20070;-81
2024/01/16 09:07:52;;;;;;;8.07;3.40;;;0.60;99.90;;;;;;4942759;28;20106;-81
2024/01/16 09:10:18;;;;;;;14.38;3.53;;;0.50;99.90;;;;;;4913142;28;20089;-81
2024/01/16 09:12:44;;;;;;;10.13;1.95;;;0.60;99.90;;;;;;4941873;28;20428;-81
2024/01/16 09:15:10;;;;;;;9.85;2.83;;;0.60;99.90;;;;;;4958302;28;20275;-81
2024/01/16 09:17:35;;;;;;;13.73;2.95;;;0.60;99.90;;;;;;4944605;28;20590;-81
2024/01/16 09:20:01;;;;;;;7.85;1.85;;;0.70;99.90;;;;;;4946907;28;20035;-81
2024/01/16 09:22:27;;;;;;;8.52;2.47;;;0.70;99.90;;;;;;4942891;28;20067;-81
2024/01/16 09:24:52;;;;;;;5.22;2.17;;;0.70;99.90;;;;;;4949315;28;20027;-81
2024/01/16 09:27:18;;;;;;;5.70;2.13;;;0.70;99.90;;;;;;4948935;28;20026;-81
2024/01/16 09:29:43;;;;;;;5.30;2.45;;;0.60;99.90;;;;;;4948822;28;20035;-81
2024/01/16 09:32:09;;;;;;;5.97;2.40;;;0.70;99.90;;;;;;4947045;28;20045;-82
2024/01/16 09:34:35;;;;;;;5.45;1.85;;;0.70;99.90;;;;;;4959473;28;20050;-81
2024/01/16 09:37:03;;;;;;;10.45;2.55;;;0.70;99.90;;;;;;4946186;28;20524;-81
2024/01/16 09:39:34;;;;;;;6.15;2.67;;;0.70;99.90;;;;;;4961277;28;20531;-81
2024/01/16 09:42:01;;;;;;;2.15;1.60;;;0.80;99.90;;;;;;4949656;28;20095;-81
2024/01/16 09:44:27;;;;;;;4.63;1.58;;;0.80;99.90;;;;;;4942575;28;20632;-81
2024/01/16 09:46:53;;;;;;;6.18;2.50;;;0.80;99.90;;;;;;4947197;28;20500;-81
2024/01/16 09:49:19;;;;;;;4.47;1.33;;;0.80;99.90;;;;;;4961292;28;20027;-81
2024/01/16 09:51:45;;;;;;;8.23;2.38;;;0.70;99.90;;;;;;4963951;28;20126;-80
2024/01/16 09:54:10;;;;;;;5.53;2.38;;;0.80;99.90;;;;;;4950197;28;20038;-81
2024/01/16 09:56:41;;;;;;;6.68;1.90;;;0.80;99.90;;;;;;4946090;28;20034;-81
2024/01/16 09:59:07;;;;;;;14.63;2.75;;;0.80;99.90;;;;;;4933302;28;20031;-81
2024/01/16 10:01:33;;;;;;;6.50;2.13;;;0.80;99.90;;;;;;4945902;28;20041;-81
2024/01/16 10:03:58;;;;;;;7.68;2.70;;;0.80;99.90;;;;;;4956529;28;20390;-81
2024/01/16 10:06:24;;;;;;;7.47;3.53;;;0.90;99.90;;;;;;4960332;28;20035;-82
2024/01/16 10:08:50;;;;;;;7.75;1.83;;;0.90;99.90;;;;;;4962781;28;20043;-81
2024/01/16 10:11:15;;;;;;;10.43;3.25;;;0.90;99.90;;;;;;4945063;28;20031;-80
2024/01/16 10:13:41;;;;;;;8.85;3.10;;;1.00;99.90;;;;;;4945761;28;20062;-81
2024/01/16 10:16:07;;;;;;;5.55;3.08;;;1.00;99.90;;;;;;4943399;28;20027;-82
2024/01/16 10:18:37;;;;;;;6.38;2.55;;;0.90;99.90;;;;;;4948964;28;20093;-81
2024/01/16 10:21:03;;;;;;;8.70;2.67;;;1.00;99.90;;;;;;4960563;28;20049;-81
2024/01/16 10:23:30;;;;;;;4.70;2.10;;;1.00;99.90;;;;;;4946601;28;20042;-81
2024/01/16 10:26:11;;;;;;;9.63;2.20;;;1.00;99.90;;;;;;4946226;28;20446;-81
2024/01/16 10:28:38;;;;;;;8.02;2.65;;;1.10;99.90;;;;;;4945301;28;20027;-82
2024/01/16 10:31:08;;;;;;;7.28;2.42;;;1.20;99.90;;;;;;4950424;28;20038;-82
2024/01/16 10:33:34;;;;;;;11.10;2.97;;;1.20;99.90;;;;;;4962053;28;20041;-82
2024/01/16 10:36:16;;;;;;;6.40;2.88;;;1.20;99.90;;;;;;4947184;28;20043;-82
2024/01/16 10:38:45;;;;;;;7.03;3.10;;;1.20;99.90;;;;;;4945978;28;20097;-81
2024/01/16 10:41:17;;;;;;;5.30;2.28;;;1.30;99.90;;;;;;4949029;28;20055;-82
2024/01/16 10:43:46;;;;;;;8.75;2.20;;;1.30;99.90;;;;;;4949425;28;20046;-82
2024/01/16 10:46:14;;;;;;;4.50;2.17;;;1.30;99.90;;;;;;4950619;28;20497;-83
2024/01/16 10:48:44;;;;;;;6.95;2.03;;;1.30;99.90;;;;;;4934360;28;20477;-82
2024/01/16 10:51:14;;;;;;;6.60;2.70;;;1.30;99.90;;;;;;4947044;28;20489;-81
2024/01/16 10:53:43;;;;;;;9.13;3.30;;;1.30;99.90;;;;;;4945387;28;20039;-82
2024/01/16 10:56:12;;;;;;;5.47;2.25;;;1.40;99.90;;;;;;4946589;28;20038;-81
2024/01/16 10:58:42;;;;;;;7.68;2.47;;;1.40;99.90;;;;;;4918816;28;20038;-82
2024/01/16 11:01:10;;;;;;;7.47;2.47;;;1.40;99.90;;;;;;4944684;28;20164;-82
2024/01/16 11:03:40;;;;;;;6.22;1.73;;;1.40;99.90;;;;;;4935612;28;20062;-82
2024/01/16 11:06:07;;;;;;;2.90;1.73;;;1.50;99.90;;;;;;4918118;28;20027;-81
2024/01/16 11:08:37;;;;;;;5.85;3.22;;;1.50;99.90;;;;;;4926227;28;20170;-82
2024/01/16 11:11:03;;;;;;;7.55;3.55;;;1.50;99.90;;;;;;4944310;28;20094;-82
2024/01/16 11:13:34;;;;;;;11.68;3.58;;;1.60;99.90;;;;;;4933795;28;20539;-82
2024/01/16 11:16:00;;;;;;;4.47;1.63;;;1.60;99.90;;;;;;4931270;28;20043;-82
2024/01/16 11:18:26;;;;;;;13.63;3.63;;;1.60;99.90;;;;;;4940658;28;20038;-81
2024/01/16 11:20:54;;;;;;;4.50;2.75;;;1.60;99.90;;;;;;4921626;28;20507;-82
2024/01/16 11:23:19;;;;;;;8.65;2.50;;;1.60;99.90;;;;;;4926065;28;20038;-82
2024/01/16 11:25:45;;;;;;;11.73;2.80;;;1.50;99.90;;;;;;4947136;28;20054;-81
2024/01/16 11:28:12;;;;;;;7.50;2.80;;;1.50;99.90;;;;;;4945332;28;20129;-81
2024/01/16 11:30:38;;;;;;;2.90;1.13;;;1.50;99.90;;;;;;4961461;28;20457;-81
2024/01/16 11:33:06;;;;;;;5.25;2.17;;;1.60;99.90;;;;;;4960724;28;20197;-82
2024/01/16 11:35:39;;;;;;;14.63;3.10;;;1.70;99.90;;;;;;4947220;28;20058;-82
2024/01/16 11:38:18;;;;;;;2.75;2.00;;;1.70;99.90;;;;;;4943978;28;20572;-82
2024/01/16 11:40:45;;;;;;;6.03;2.78;;;1.70;99.90;;;;;;4945291;28;20043;-81
2024/01/16 11:43:32;;;;;;;5.95;1.25;;;1.80;99.90;;;;;;4961785;28;20043;-81
2024/01/16 11:45:58;;;;;;;12.73;4.13;;;1.90;99.90;;;;;;4944580;28;20101;-82
2024/01/16 11:48:24;;;;;;;7.72;3.67;;;2.00;99.90;;;;;;4945746;28;20034;-81
2024/01/16 11:50:50;;;;;;;7.53;2.30;;;2.00;99.90;;;;;;4946333;28;20094;-82
2024/01/16 11:53:40;;;;;;;6.35;2.88;;;1.90;99.90;;;;;;4946562;28;20031;-82
2024/01/16 11:56:16;;;;;;;7.70;3.42;;;2.00;99.90;;;;;;4932295;28;20125;-82
2024/01/16 11:58:41;;;;;;;12.05;3.28;;;2.00;99.90;;;;;;4963919;28;20059;-81
2024/01/16 12:01:11;;;;;;;6.82;2.30;;;2.00;99.90;;;;;;4962741;28;20634;-82
2024/01/16 12:03:37;;;;;;;8.73;2.58;;;2.00;99.90;;;;;;4947862;28;20082;-81
2024/01/16 12:06:06;;;;;;;15.52;2.20;;;1.90;99.90;;;;;;4957096;28;20051;-81
2024/01/16 12:08:31;;;;;;;4.38;1.95;;;1.90;99.90;;;;;;4947114;28;20059;-81
2024/01/16 12:10:57;;;;;;;8.30;3.13;;;2.00;99.90;;;;;;4930379;28;20038;-80
2024/01/16 12:13:23;;;;;;;5.32;2.75;;;2.00;99.90;;;;;;4956251;28;20076;-80
2024/01/16 12:15:49;;;;;;;6.95;2.42;;;2.10;99.90;;;;;;4919973;28;20035;-81
2024/01/16 12:18:20;;;;;;;12.45;3.45;;;2.20;99.90;;;;;;4945711;28;20039;-81
2024/01/16 12:20:46;;;;;;;9.32;3.70;;;2.30;99.90;;;;;;4944516;28;20130;-81
2024/01/16 12:23:11;;;;;;;8.40;1.98;;;2.30;99.90;;;;;;4940990;28;20118;-82
2024/01/16 12:25:37;;;;;;;3.10;1.58;;;2.40;99.90;;;;;;4940877;28;20034;-81
2024/01/16 12:28:04;;;;;;;6.05;2.97;;;2.60;99.90;;;;;;4945753;28;20034;-80
2024/01/16 12:30:31;;;;;;;7.07;2.65;;;2.70;99.90;;;;;;4929093;28;20347;-81
2024/01/16 12:33:03;;;;;;;7.85;3.97;;;2.80;99.90;;;;;;4926653;28;20590;-81
2024/01/16 12:35:29;;;;;;;7.40;3.13;;;2.70;99.90;;;;;;4959356;28;20596;-81
2024/01/16 12:38:01;;;;;;;8.65;3.17;;;2.70;99.90;;;;;;4944761;28;20034;-82
2024/01/16 12:40:27;;;;;;;9.95;3.45;;;2.80;99.90;;;;;;4942241;28;20560;-82
2024/01/16 12:42:53;;;;;;;9.57;4.45;;;3.00;99.90;;;;;;4928192;28;20034;-81
2024/01/16 12:45:19;;;;;;;12.55;3.58;;;3.30;99.90;;;;;;4920028;28;20042;-81